Honolulu, HI

5:51 PM HST on September 20, 2014 (GMT -1000)
Kaneohe Bay Marine Corps Air Facility | Change Station
CLOSE
Current Station
Airport
Location: Kaneohe MCBH,
Elevation: 23 ft
Nearby Weather Stations

Elev 23 ft 21.45 °N, 157.76 °W | Updated 18 minutes ago

Overcast
Overcast
82 °F
Feels Like 88 °F
N
5
Wind Variable Wind from East

Today
High -- | Low -- °F
--% Chance of Precip.
Yesterday
High -- | Low -- °F
Precip. -- in
6:19 AM 6:29 PM
Waning Crescent, 9% visible
Pressure 29.90 in
Visibility 10.0 miles
Clouds Scattered Clouds 2200 ft
Overcast 6000 ft
Heat Index 88 °F
Dew Point 73 °F
Humidity 74%
Rainfall 0.00 in
Snow Depth Not available.
UV 0 out of 12
Pollen Not available.
PM2.5 Good
Flu Activity Not available.
SPECI PHNG 210333Z 10004KT 10SM SCT022 OVC060 28/23 A2990 RMK AO2 $

More Conditions Fewer Conditions

Pressure 29.90 in
Visibility 10.0 miles
Clouds Scattered Clouds 2200 ft
Overcast 6000 ft
Heat Index 88 °F
Dew Point 73 °F
Humidity 74%
Rainfall 0.00 in
Snow Depth Not available.
UV 0 out of 12
Pollen Not available.
PM2.5 Good
Flu Activity Not available.
SPECI PHNG 210333Z 10004KT 10SM SCT022 OVC060 28/23 A2990 RMK AO2 $

More Conditions Fewer Conditions

10-Day Weather Forecast

Almanac

Astronomy

Sep. 20, 2014 Rise Set
Actual Time 6:19 AM HST 6:29 PM HST
Civil Twilight 5:57 AM HST 6:51 PM HST
Nautical Twilight 5:31 AM HST 7:17 PM HST
Astronomical Twilight 5:05 AM HST 7:43 PM HST
Moon 3:28 AM HST (9/20) 4:23 PM HST (9/20)
Length of Visible Light 12h 54m
Length of Day
12h 09m
Tomorrow will be 1m 13s shorter.
Waning Crescent, 9% of the Moon is Illuminated
Today
Waning Crescent
Sep 24
New
Oct 1
First Quarter
Oct 8
Full
Oct 15
Last Quarter

Today's Extremes

State Highs State Lows

Community

WunderPhotos

Upload Photos

1,755,072 photos uploaded!

Nearby

Air Quality

  Air Quality AQ Index Pollutant
Yesterday Good
PM10
Current Good
PM2.5
Saturday Good
OZONE
Sunday Good
OZONE

Snow Depth

Station Depth Elevation
No new snow has been reported.

Earthquake Activity

City Distance Mag. Time & Date
No recent earthquake activity has been reported nearby.
Minimum magnitude displayed is 2.5.

Coastal Water Temperatures

Place Temperature
No Stations Reporting

Nearby Weather Stations